sensor_id;sensor_type;location;lat;lon;timestamp;P1;durP1;ratioP1;P2;durP2;ratioP2
31906;SDS011;18455;50.858;13.662;2023-07-02T00:02:56;2.65;;;1.40;;
31906;SDS011;18455;50.858;13.662;2023-07-02T00:07:57;1.65;;;1.40;;
31906;SDS011;18455;50.858;13.662;2023-07-02T00:12:57;1.80;;;1.52;;
31906;SDS011;18455;50.858;13.662;2023-07-02T00:17:58;2.22;;;1.60;;
31906;SDS011;18455;50.858;13.662;2023-07-02T00:22:58;1.13;;;1.10;;
31906;SDS011;18455;50.858;13.662;2023-07-02T00:28:00;2.38;;;1.30;;
31906;SDS011;18455;50.858;13.662;2023-07-02T00:33:00;1.63;;;1.20;;
31906;SDS011;18455;50.858;13.662;2023-07-02T00:38:01;1.55;;;1.15;;
31906;SDS011;18455;50.858;13.662;2023-07-02T00:43:01;1.42;;;1.30;;
31906;SDS011;18455;50.858;13.662;2023-07-02T00:48:02;1.20;;;1.10;;
31906;SDS011;18455;50.858;13.662;2023-07-02T00:53:02;1.63;;;1.30;;
31906;SDS011;18455;50.858;13.662;2023-07-02T00:58:02;1.25;;;1.15;;
31906;SDS011;18455;50.858;13.662;2023-07-02T01:03:03;0.98;;;0.95;;
31906;SDS011;18455;50.858;13.662;2023-07-02T01:08:04;1.20;;;1.10;;
31906;SDS011;18455;50.858;13.662;2023-07-02T01:13:07;1.88;;;1.40;;
31906;SDS011;18455;50.858;13.662;2023-07-02T01:18:10;1.50;;;1.40;;
31906;SDS011;18455;50.858;13.662;2023-07-02T01:23:12;2.10;;;1.50;;
31906;SDS011;18455;50.858;13.662;2023-07-02T01:28:13;4.35;;;1.38;;
31906;SDS011;18455;50.858;13.662;2023-07-02T01:33:14;1.33;;;1.20;;
31906;SDS011;18455;50.858;13.662;2023-07-02T01:38:14;1.67;;;1.30;;
31906;SDS011;18455;50.858;13.662;2023-07-02T01:43:14;1.92;;;1.40;;
31906;SDS011;18455;50.858;13.662;2023-07-02T01:48:15;1.40;;;1.30;;
31906;SDS011;18455;50.858;13.662;2023-07-02T01:53:15;1.63;;;1.52;;
31906;SDS011;18455;50.858;13.662;2023-07-02T01:58:15;1.77;;;1.60;;
31906;SDS011;18455;50.858;13.662;2023-07-02T02:03:16;1.52;;;1.40;;
31906;SDS011;18455;50.858;13.662;2023-07-02T02:08:16;1.67;;;1.58;;
31906;SDS011;18455;50.858;13.662;2023-07-02T02:13:17;2.00;;;1.80;;
31906;SDS011;18455;50.858;13.662;2023-07-02T02:18:17;2.55;;;2.00;;
31906;SDS011;18455;50.858;13.662;2023-07-02T02:23:17;2.22;;;2.13;;
31906;SDS011;18455;50.858;13.662;2023-07-02T02:28:18;2.17;;;2.00;;
31906;SDS011;18455;50.858;13.662;2023-07-02T02:33:18;2.10;;;2.00;;
31906;SDS011;18455;50.858;13.662;2023-07-02T02:38:19;2.67;;;2.20;;
31906;SDS011;18455;50.858;13.662;2023-07-02T02:43:20;2.75;;;2.40;;
31906;SDS011;18455;50.858;13.662;2023-07-02T02:48:21;4.38;;;2.50;;
31906;SDS011;18455;50.858;13.662;2023-07-02T02:53:24;2.50;;;2.30;;
31906;SDS011;18455;50.858;13.662;2023-07-02T02:58:25;2.42;;;2.22;;
31906;SDS011;18455;50.858;13.662;2023-07-02T03:03:27;2.80;;;2.20;;
31906;SDS011;18455;50.858;13.662;2023-07-02T03:08:28;2.90;;;2.70;;
31906;SDS011;18455;50.858;13.662;2023-07-02T03:13:28;2.30;;;1.98;;
31906;SDS011;18455;50.858;13.662;2023-07-02T03:18:29;2.63;;;2.42;;
31906;SDS011;18455;50.858;13.662;2023-07-02T03:23:29;2.42;;;2.22;;
31906;SDS011;18455;50.858;13.662;2023-07-02T03:28:29;2.58;;;2.38;;
31906;SDS011;18455;50.858;13.662;2023-07-02T03:33:31;3.67;;;2.63;;
31906;SDS011;18455;50.858;13.662;2023-07-02T03:38:32;3.35;;;2.53;;
31906;SDS011;18455;50.858;13.662;2023-07-02T03:43:32;2.70;;;2.50;;
31906;SDS011;18455;50.858;13.662;2023-07-02T03:48:33;2.50;;;2.30;;
31906;SDS011;18455;50.858;13.662;2023-07-02T03:53:34;4.03;;;2.35;;
31906;SDS011;18455;50.858;13.662;2023-07-02T03:58:35;2.80;;;2.60;;
31906;SDS011;18455;50.858;13.662;2023-07-02T04:03:35;4.50;;;2.30;;
31906;SDS011;18455;50.858;13.662;2023-07-02T04:08:36;3.92;;;2.30;;
31906;SDS011;18455;50.858;13.662;2023-07-02T04:13:36;3.95;;;2.40;;
31906;SDS011;18455;50.858;13.662;2023-07-02T04:18:37;4.57;;;2.80;;
31906;SDS011;18455;50.858;13.662;2023-07-02T04:23:37;2.97;;;2.50;;
31906;SDS011;18455;50.858;13.662;2023-07-02T04:28:37;4.38;;;3.22;;
31906;SDS011;18455;50.858;13.662;2023-07-02T04:33:38;4.07;;;3.47;;
31906;SDS011;18455;50.858;13.662;2023-07-02T04:38:39;3.92;;;3.63;;
31906;SDS011;18455;50.858;13.662;2023-07-02T04:43:39;4.13;;;3.50;;
31906;SDS011;18455;50.858;13.662;2023-07-02T04:48:40;3.33;;;3.03;;
31906;SDS011;18455;50.858;13.662;2023-07-02T04:53:40;5.40;;;4.00;;
31906;SDS011;18455;50.858;13.662;2023-07-02T04:58:40;5.57;;;4.38;;
31906;SDS011;18455;50.858;13.662;2023-07-02T05:03:41;4.72;;;4.18;;
31906;SDS011;18455;50.858;13.662;2023-07-02T05:08:41;3.97;;;3.67;;
31906;SDS011;18455;50.858;13.662;2023-07-02T05:13:42;4.53;;;4.13;;
31906;SDS011;18455;50.858;13.662;2023-07-02T05:18:42;5.45;;;4.25;;
31906;SDS011;18455;50.858;13.662;2023-07-02T05:23:42;4.60;;;4.20;;
31906;SDS011;18455;50.858;13.662;2023-07-02T05:28:43;7.07;;;4.10;;
31906;SDS011;18455;50.858;13.662;2023-07-02T05:33:44;5.50;;;4.30;;
31906;SDS011;18455;50.858;13.662;2023-07-02T05:38:44;5.20;;;4.50;;
31906;SDS011;18455;50.858;13.662;2023-07-02T05:43:45;4.25;;;3.88;;
31906;SDS011;18455;50.858;13.662;2023-07-02T05:48:45;4.30;;;4.00;;
31906;SDS011;18455;50.858;13.662;2023-07-02T05:53:45;4.43;;;4.03;;
31906;SDS011;18455;50.858;13.662;2023-07-02T05:58:46;5.65;;;4.10;;
31906;SDS011;18455;50.858;13.662;2023-07-02T06:03:48;6.65;;;3.90;;
31906;SDS011;18455;50.858;13.662;2023-07-02T06:08:49;4.05;;;3.65;;
31906;SDS011;18455;50.858;13.662;2023-07-02T06:13:50;7.55;;;3.85;;
31906;SDS011;18455;50.858;13.662;2023-07-02T06:18:50;4.50;;;4.10;;
31906;SDS011;18455;50.858;13.662;2023-07-02T06:23:51;5.72;;;3.97;;
31906;SDS011;18455;50.858;13.662;2023-07-02T06:28:51;6.47;;;4.90;;
31906;SDS011;18455;50.858;13.662;2023-07-02T06:33:52;5.88;;;4.68;;
31906;SDS011;18455;50.858;13.662;2023-07-02T06:38:52;5.90;;;5.35;;
31906;SDS011;18455;50.858;13.662;2023-07-02T06:43:52;6.00;;;5.50;;
31906;SDS011;18455;50.858;13.662;2023-07-02T06:48:53;5.60;;;5.00;;
31906;SDS011;18455;50.858;13.662;2023-07-02T06:53:53;4.85;;;4.45;;
31906;SDS011;18455;50.858;13.662;2023-07-02T06:58:53;6.03;;;4.30;;
31906;SDS011;18455;50.858;13.662;2023-07-02T07:03:54;5.07;;;4.57;;
31906;SDS011;18455;50.858;13.662;2023-07-02T07:08:54;5.28;;;4.78;;
31906;SDS011;18455;50.858;13.662;2023-07-02T07:13:54;5.82;;;5.22;;
31906;SDS011;18455;50.858;13.662;2023-07-02T07:18:55;5.85;;;5.35;;
31906;SDS011;18455;50.858;13.662;2023-07-02T07:23:55;9.05;;;7.03;;
31906;SDS011;18455;50.858;13.662;2023-07-02T07:28:56;7.03;;;6.38;;
31906;SDS011;18455;50.858;13.662;2023-07-02T07:33:57;5.90;;;5.30;;
31906;SDS011;18455;50.858;13.662;2023-07-02T07:38:58;9.55;;;5.22;;
31906;SDS011;18455;50.858;13.662;2023-07-02T07:43:58;4.88;;;4.40;;
31906;SDS011;18455;50.858;13.662;2023-07-02T07:49:00;7.22;;;5.60;;
31906;SDS011;18455;50.858;13.662;2023-07-02T07:54:00;5.97;;;4.47;;
31906;SDS011;18455;50.858;13.662;2023-07-02T07:59:00;5.25;;;4.78;;
31906;SDS011;18455;50.858;13.662;2023-07-02T08:04:01;4.70;;;4.07;;
31906;SDS011;18455;50.858;13.662;2023-07-02T08:09:01;4.10;;;3.70;;
31906;SDS011;18455;50.858;13.662;2023-07-02T08:14:03;4.05;;;3.55;;
31906;SDS011;18455;50.858;13.662;2023-07-02T08:19:03;3.45;;;3.00;;
31906;SDS011;18455;50.858;13.662;2023-07-02T08:24:04;2.72;;;2.40;;
31906;SDS011;18455;50.858;13.662;2023-07-02T08:29:04;3.40;;;3.10;;
31906;SDS011;18455;50.858;13.662;2023-07-02T08:34:04;5.07;;;2.60;;
31906;SDS011;18455;50.858;13.662;2023-07-02T08:39:05;6.82;;;2.30;;
31906;SDS011;18455;50.858;13.662;2023-07-02T08:44:05;2.20;;;2.00;;
31906;SDS011;18455;50.858;13.662;2023-07-02T08:49:06;4.68;;;2.13;;
31906;SDS011;18455;50.858;13.662;2023-07-02T08:54:06;3.20;;;2.20;;
31906;SDS011;18455;50.858;13.662;2023-07-02T08:59:07;2.60;;;2.10;;
31906;SDS011;18455;50.858;13.662;2023-07-02T09:04:08;2.28;;;2.00;;
31906;SDS011;18455;50.858;13.662;2023-07-02T09:09:15;2.22;;;2.03;;
31906;SDS011;18455;50.858;13.662;2023-07-02T09:14:28;4.28;;;1.83;;
31906;SDS011;18455;50.858;13.662;2023-07-02T09:19:29;2.03;;;1.75;;
31906;SDS011;18455;50.858;13.662;2023-07-02T09:24:31;1.45;;;1.35;;
31906;SDS011;18455;50.858;13.662;2023-07-02T09:29:32;2.78;;;1.30;;
31906;SDS011;18455;50.858;13.662;2023-07-02T09:34:34;2.05;;;1.45;;
31906;SDS011;18455;50.858;13.662;2023-07-02T09:39:36;3.38;;;1.65;;
31906;SDS011;18455;50.858;13.662;2023-07-02T09:44:36;1.55;;;1.45;;
31906;SDS011;18455;50.858;13.662;2023-07-02T09:49:45;1.60;;;1.48;;
31906;SDS011;18455;50.858;13.662;2023-07-02T09:55:03;1.80;;;1.45;;
31906;SDS011;18455;50.858;13.662;2023-07-02T10:00:04;1.98;;;1.40;;
31906;SDS011;18455;50.858;13.662;2023-07-02T10:05:06;3.03;;;1.65;;
31906;SDS011;18455;50.858;13.662;2023-07-02T10:10:06;1.70;;;1.23;;
31906;SDS011;18455;50.858;13.662;2023-07-02T10:15:07;3.50;;;1.20;;
31906;SDS011;18455;50.858;13.662;2023-07-02T10:20:08;1.63;;;1.30;;
31906;SDS011;18455;50.858;13.662;2023-07-02T10:25:11;1.20;;;1.10;;
31906;SDS011;18455;50.858;13.662;2023-07-02T10:30:11;1.95;;;1.35;;
31906;SDS011;18455;50.858;13.662;2023-07-02T10:35:15;1.25;;;1.15;;
31906;SDS011;18455;50.858;13.662;2023-07-02T10:40:16;1.48;;;1.27;;
31906;SDS011;18455;50.858;13.662;2023-07-02T10:45:17;3.10;;;1.30;;
31906;SDS011;18455;50.858;13.662;2023-07-02T10:50:18;5.47;;;2.28;;
31906;SDS011;18455;50.858;13.662;2023-07-02T10:55:20;2.78;;;1.40;;
31906;SDS011;18455;50.858;13.662;2023-07-02T11:00:21;2.20;;;1.40;;
31906;SDS011;18455;50.858;13.662;2023-07-02T11:05:21;1.23;;;1.13;;
31906;SDS011;18455;50.858;13.662;2023-07-02T11:10:22;2.40;;;1.42;;
31906;SDS011;18455;50.858;13.662;2023-07-02T11:15:23;1.60;;;1.50;;
31906;SDS011;18455;50.858;13.662;2023-07-02T11:20:23;1.42;;;1.33;;
31906;SDS011;18455;50.858;13.662;2023-07-02T11:25:33;1.55;;;1.40;;
31906;SDS011;18455;50.858;13.662;2023-07-02T11:30:44;3.10;;;1.30;;
31906;SDS011;18455;50.858;13.662;2023-07-02T11:35:45;1.40;;;1.30;;
31906;SDS011;18455;50.858;13.662;2023-07-02T11:40:45;4.78;;;1.58;;
31906;SDS011;18455;50.858;13.662;2023-07-02T11:45:48;2.10;;;1.40;;
31906;SDS011;18455;50.858;13.662;2023-07-02T11:50:48;4.82;;;1.70;;
31906;SDS011;18455;50.858;13.662;2023-07-02T11:55:49;1.55;;;1.40;;
31906;SDS011;18455;50.858;13.662;2023-07-02T12:00:49;1.70;;;1.50;;
31906;SDS011;18455;50.858;13.662;2023-07-02T12:05:49;6.07;;;1.48;;
31906;SDS011;18455;50.858;13.662;2023-07-02T12:10:51;3.10;;;1.52;;
31906;SDS011;18455;50.858;13.662;2023-07-02T12:15:51;6.35;;;1.90;;
31906;SDS011;18455;50.858;13.662;2023-07-02T12:20:51;3.80;;;1.95;;
31906;SDS011;18455;50.858;13.662;2023-07-02T12:25:52;3.65;;;1.73;;
31906;SDS011;18455;50.858;13.662;2023-07-02T12:30:52;5.45;;;1.60;;
31906;SDS011;18455;50.858;13.662;2023-07-02T12:35:53;3.05;;;2.42;;
31906;SDS011;18455;50.858;13.662;2023-07-02T12:40:53;5.90;;;2.10;;
31906;SDS011;18455;50.858;13.662;2023-07-02T12:45:54;3.00;;;1.90;;
31906;SDS011;18455;50.858;13.662;2023-07-02T12:50:57;4.47;;;2.30;;
31906;SDS011;18455;50.858;13.662;2023-07-02T12:55:58;3.20;;;2.20;;
31906;SDS011;18455;50.858;13.662;2023-07-02T13:00:59;2.00;;;1.80;;
31906;SDS011;18455;50.858;13.662;2023-07-02T13:05:59;6.45;;;2.20;;
31906;SDS011;18455;50.858;13.662;2023-07-02T13:11:00;3.28;;;2.28;;
31906;SDS011;18455;50.858;13.662;2023-07-02T13:16:00;6.97;;;1.95;;
31906;SDS011;18455;50.858;13.662;2023-07-02T13:21:00;4.00;;;2.20;;
31906;SDS011;18455;50.858;13.662;2023-07-02T13:26:01;4.78;;;1.88;;
31906;SDS011;18455;50.858;13.662;2023-07-02T13:31:01;2.35;;;1.85;;
31906;SDS011;18455;50.858;13.662;2023-07-02T13:36:01;5.75;;;2.33;;
31906;SDS011;18455;50.858;13.662;2023-07-02T13:41:02;4.53;;;2.58;;
31906;SDS011;18455;50.858;13.662;2023-07-02T13:46:02;3.08;;;1.58;;
31906;SDS011;18455;50.858;13.662;2023-07-02T13:51:03;3.17;;;1.88;;
31906;SDS011;18455;50.858;13.662;2023-07-02T13:56:03;6.72;;;2.03;;
31906;SDS011;18455;50.858;13.662;2023-07-02T14:01:04;5.82;;;1.80;;
31906;SDS011;18455;50.858;13.662;2023-07-02T14:06:04;3.35;;;1.60;;
31906;SDS011;18455;50.858;13.662;2023-07-02T14:11:04;5.35;;;2.30;;
31906;SDS011;18455;50.858;13.662;2023-07-02T14:16:05;5.00;;;2.10;;
31906;SDS011;18455;50.858;13.662;2023-07-02T14:21:05;6.45;;;2.65;;
31906;SDS011;18455;50.858;13.662;2023-07-02T14:26:06;3.40;;;2.60;;
31906;SDS011;18455;50.858;13.662;2023-07-02T14:31:08;4.75;;;2.58;;
31906;SDS011;18455;50.858;13.662;2023-07-02T14:36:08;7.43;;;2.17;;
31906;SDS011;18455;50.858;13.662;2023-07-02T14:41:08;5.30;;;2.33;;
31906;SDS011;18455;50.858;13.662;2023-07-02T14:46:09;5.78;;;2.33;;
31906;SDS011;18455;50.858;13.662;2023-07-02T14:51:09;6.93;;;2.05;;
31906;SDS011;18455;50.858;13.662;2023-07-02T14:56:10;4.35;;;2.50;;
31906;SDS011;18455;50.858;13.662;2023-07-02T15:01:10;7.75;;;2.80;;
31906;SDS011;18455;50.858;13.662;2023-07-02T15:06:13;5.35;;;2.80;;
31906;SDS011;18455;50.858;13.662;2023-07-02T15:11:15;6.10;;;2.92;;
31906;SDS011;18455;50.858;13.662;2023-07-02T15:16:15;5.38;;;3.10;;
31906;SDS011;18455;50.858;13.662;2023-07-02T15:21:16;7.93;;;3.15;;
31906;SDS011;18455;50.858;13.662;2023-07-02T15:26:18;4.90;;;3.55;;
31906;SDS011;18455;50.858;13.662;2023-07-02T15:31:18;5.72;;;3.55;;
31906;SDS011;18455;50.858;13.662;2023-07-02T15:36:19;5.70;;;3.30;;
31906;SDS011;18455;50.858;13.662;2023-07-02T15:41:21;5.20;;;3.60;;
31906;SDS011;18455;50.858;13.662;2023-07-02T15:46:21;5.45;;;3.90;;
31906;SDS011;18455;50.858;13.662;2023-07-02T15:51:22;6.55;;;4.05;;
31906;SDS011;18455;50.858;13.662;2023-07-02T15:56:25;5.45;;;3.78;;
31906;SDS011;18455;50.858;13.662;2023-07-02T16:01:26;11.48;;;4.35;;
31906;SDS011;18455;50.858;13.662;2023-07-02T16:06:27;4.43;;;3.40;;
31906;SDS011;18455;50.858;13.662;2023-07-02T16:11:33;8.52;;;4.43;;
31906;SDS011;18455;50.858;13.662;2023-07-02T16:16:37;6.60;;;4.45;;
31906;SDS011;18455;50.858;13.662;2023-07-02T16:21:40;8.52;;;4.82;;
31906;SDS011;18455;50.858;13.662;2023-07-02T16:26:41;7.70;;;4.38;;
31906;SDS011;18455;50.858;13.662;2023-07-02T16:31:54;8.38;;;5.60;;
31906;SDS011;18455;50.858;13.662;2023-07-02T16:36:55;9.73;;;5.22;;
31906;SDS011;18455;50.858;13.662;2023-07-02T16:41:56;9.95;;;5.45;;
31906;SDS011;18455;50.858;13.662;2023-07-02T16:46:57;8.25;;;4.97;;
31906;SDS011;18455;50.858;13.662;2023-07-02T16:51:58;10.30;;;5.50;;
31906;SDS011;18455;50.858;13.662;2023-07-02T16:56:58;10.13;;;5.45;;
31906;SDS011;18455;50.858;13.662;2023-07-02T17:02:00;11.43;;;6.22;;
31906;SDS011;18455;50.858;13.662;2023-07-02T17:07:00;8.65;;;6.00;;
31906;SDS011;18455;50.858;13.662;2023-07-02T17:12:01;8.52;;;6.00;;
31906;SDS011;18455;50.858;13.662;2023-07-02T17:17:07;10.07;;;6.07;;
31906;SDS011;18455;50.858;13.662;2023-07-02T17:22:16;9.18;;;5.75;;
31906;SDS011;18455;50.858;13.662;2023-07-02T17:27:22;10.98;;;6.32;;
31906;SDS011;18455;50.858;13.662;2023-07-02T17:32:25;13.65;;;6.13;;
31906;SDS011;18455;50.858;13.662;2023-07-02T17:37:25;13.75;;;6.95;;
31906;SDS011;18455;50.858;13.662;2023-07-02T17:42:26;10.55;;;6.20;;
31906;SDS011;18455;50.858;13.662;2023-07-02T17:47:26;9.35;;;6.07;;
31906;SDS011;18455;50.858;13.662;2023-07-02T17:52:26;8.85;;;6.40;;
31906;SDS011;18455;50.858;13.662;2023-07-02T17:57:27;10.98;;;6.22;;
31906;SDS011;18455;50.858;13.662;2023-07-02T18:02:27;9.45;;;6.60;;
31906;SDS011;18455;50.858;13.662;2023-07-02T18:07:28;12.68;;;6.78;;
31906;SDS011;18455;50.858;13.662;2023-07-02T18:12:28;12.90;;;6.70;;
31906;SDS011;18455;50.858;13.662;2023-07-02T18:17:28;12.32;;;7.10;;
31906;SDS011;18455;50.858;13.662;2023-07-02T18:22:29;11.00;;;6.88;;
31906;SDS011;18455;50.858;13.662;2023-07-02T18:27:29;20.17;;;12.55;;
31906;SDS011;18455;50.858;13.662;2023-07-02T18:32:29;12.90;;;7.75;;
31906;SDS011;18455;50.858;13.662;2023-07-02T18:37:30;16.25;;;7.30;;
31906;SDS011;18455;50.858;13.662;2023-07-02T18:42:30;14.30;;;7.88;;
31906;SDS011;18455;50.858;13.662;2023-07-02T18:47:31;11.95;;;7.63;;
31906;SDS011;18455;50.858;13.662;2023-07-02T18:52:31;16.33;;;8.20;;
31906;SDS011;18455;50.858;13.662;2023-07-02T18:57:31;11.15;;;7.38;;
31906;SDS011;18455;50.858;13.662;2023-07-02T19:02:32;17.55;;;13.25;;
31906;SDS011;18455;50.858;13.662;2023-07-02T19:07:33;73.63;;;51.28;;
31906;SDS011;18455;50.858;13.662;2023-07-02T19:12:33;13.57;;;8.32;;
31906;SDS011;18455;50.858;13.662;2023-07-02T19:17:34;17.73;;;10.40;;
31906;SDS011;18455;50.858;13.662;2023-07-02T19:22:35;16.20;;;9.23;;
31906;SDS011;18455;50.858;13.662;2023-07-02T19:27:35;9.30;;;7.13;;
31906;SDS011;18455;50.858;13.662;2023-07-02T19:32:37;15.05;;;9.20;;
31906;SDS011;18455;50.858;13.662;2023-07-02T19:37:38;14.50;;;8.27;;
31906;SDS011;18455;50.858;13.662;2023-07-02T19:42:38;15.70;;;8.75;;
31906;SDS011;18455;50.858;13.662;2023-07-02T19:47:38;14.05;;;8.15;;
31906;SDS011;18455;50.858;13.662;2023-07-02T19:52:39;18.15;;;8.00;;
31906;SDS011;18455;50.858;13.662;2023-07-02T19:57:40;12.52;;;7.85;;
31906;SDS011;18455;50.858;13.662;2023-07-02T20:02:40;16.55;;;9.00;;
31906;SDS011;18455;50.858;13.662;2023-07-02T20:07:41;16.85;;;7.80;;
31906;SDS011;18455;50.858;13.662;2023-07-02T20:12:41;14.52;;;8.57;;
31906;SDS011;18455;50.858;13.662;2023-07-02T20:17:41;15.40;;;8.52;;
31906;SDS011;18455;50.858;13.662;2023-07-02T20:22:42;15.25;;;8.68;;
31906;SDS011;18455;50.858;13.662;2023-07-02T20:27:44;14.52;;;8.63;;
31906;SDS011;18455;50.858;13.662;2023-07-02T20:32:44;18.45;;;8.07;;
31906;SDS011;18455;50.858;13.662;2023-07-02T20:37:44;13.50;;;8.50;;
31906;SDS011;18455;50.858;13.662;2023-07-02T20:42:49;15.00;;;8.35;;
31906;SDS011;18455;50.858;13.662;2023-07-02T20:47:52;15.10;;;8.32;;
31906;SDS011;18455;50.858;13.662;2023-07-02T20:52:52;15.57;;;7.90;;
31906;SDS011;18455;50.858;13.662;2023-07-02T20:57:53;12.13;;;8.10;;
31906;SDS011;18455;50.858;13.662;2023-07-02T21:02:53;16.75;;;8.20;;
31906;SDS011;18455;50.858;13.662;2023-07-02T21:07:54;14.85;;;8.73;;
31906;SDS011;18455;50.858;13.662;2023-07-02T21:12:55;14.35;;;8.60;;
31906;SDS011;18455;50.858;13.662;2023-07-02T21:17:55;14.57;;;8.18;;
31906;SDS011;18455;50.858;13.662;2023-07-02T21:22:56;16.85;;;8.57;;
31906;SDS011;18455;50.858;13.662;2023-07-02T21:27:56;14.60;;;9.07;;
31906;SDS011;18455;50.858;13.662;2023-07-02T21:32:56;14.73;;;8.52;;
31906;SDS011;18455;50.858;13.662;2023-07-02T21:37:57;19.65;;;8.48;;
31906;SDS011;18455;50.858;13.662;2023-07-02T21:42:57;13.60;;;8.30;;
31906;SDS011;18455;50.858;13.662;2023-07-02T21:47:58;14.15;;;8.25;;
31906;SDS011;18455;50.858;13.662;2023-07-02T21:52:58;16.25;;;8.60;;
31906;SDS011;18455;50.858;13.662;2023-07-02T21:57:59;19.35;;;9.25;;
31906;SDS011;18455;50.858;13.662;2023-07-02T22:02:59;14.88;;;8.98;;
31906;SDS011;18455;50.858;13.662;2023-07-02T22:08:00;17.35;;;9.65;;
31906;SDS011;18455;50.858;13.662;2023-07-02T22:13:02;16.55;;;9.45;;
31906;SDS011;18455;50.858;13.662;2023-07-02T22:18:04;18.00;;;9.15;;
31906;SDS011;18455;50.858;13.662;2023-07-02T22:23:04;18.98;;;10.05;;
31906;SDS011;18455;50.858;13.662;2023-07-02T22:28:04;18.27;;;9.55;;
31906;SDS011;18455;50.858;13.662;2023-07-02T22:33:05;21.23;;;9.63;;
31906;SDS011;18455;50.858;13.662;2023-07-02T22:38:05;20.77;;;9.82;;
31906;SDS011;18455;50.858;13.662;2023-07-02T22:43:05;14.98;;;9.95;;
31906;SDS011;18455;50.858;13.662;2023-07-02T22:48:06;23.77;;;9.15;;
31906;SDS011;18455;50.858;13.662;2023-07-02T22:53:06;19.90;;;9.32;;
31906;SDS011;18455;50.858;13.662;2023-07-02T22:58:07;19.40;;;10.50;;
31906;SDS011;18455;50.858;13.662;2023-07-02T23:03:07;17.13;;;10.05;;
31906;SDS011;18455;50.858;13.662;2023-07-02T23:08:07;17.10;;;9.55;;
31906;SDS011;18455;50.858;13.662;2023-07-02T23:13:08;18.77;;;9.65;;
31906;SDS011;18455;50.858;13.662;2023-07-02T23:18:08;17.40;;;9.00;;
31906;SDS011;18455;50.858;13.662;2023-07-02T23:23:08;21.70;;;9.52;;
31906;SDS011;18455;50.858;13.662;2023-07-02T23:28:09;17.20;;;10.88;;
31906;SDS011;18455;50.858;13.662;2023-07-02T23:33:10;21.35;;;10.02;;
31906;SDS011;18455;50.858;13.662;2023-07-02T23:38:10;21.15;;;9.98;;
31906;SDS011;18455;50.858;13.662;2023-07-02T23:43:10;20.15;;;10.65;;
31906;SDS011;18455;50.858;13.662;2023-07-02T23:48:11;23.23;;;11.40;;
31906;SDS011;18455;50.858;13.662;2023-07-02T23:53:11;20.33;;;10.18;;
31906;SDS011;18455;50.858;13.662;2023-07-02T23:58:11;19.17;;;9.93;;
